createdAt,value
2018-08-31T08:35:36.860Z,50.40
2018-08-31T08:38:07.821Z,67.90
2018-08-31T08:43:33.153Z,66.00
2018-08-31T08:46:04.211Z,66.30
2018-08-31T08:48:39.379Z,65.00
2018-08-31T08:51:19.176Z,65.40
2018-08-31T09:48:48.656Z,79.80
2018-08-31T09:51:29.457Z,77.30
2018-08-31T09:54:19.508Z,77.20
2018-08-31T10:00:53.451Z,80.60
2018-08-31T10:03:32.377Z,83.10
2018-08-31T10:06:14.269Z,81.50
2018-08-31T10:08:58.511Z,78.60
2018-08-31T10:17:53.362Z,78.30
2018-08-31T11:48:57.459Z,72.20
2018-08-31T11:51:35.369Z,70.10
2018-08-31T11:54:09.545Z,67.60
2018-08-31T11:56:45.602Z,66.40
2018-08-31T11:59:17.709Z,66.70
2018-08-31T12:01:50.067Z,69.10
2018-08-31T12:04:20.352Z,69.90
2018-08-31T12:06:54.011Z,70.60
2018-08-31T12:09:27.590Z,70.80
2018-08-31T12:12:01.889Z,68.60
2018-08-31T12:14:33.235Z,71.00
2018-08-31T12:17:05.651Z,68.90
2018-08-31T12:19:38.271Z,70.40
2018-08-31T12:22:12.434Z,70.20
2018-08-31T12:24:46.188Z,75.90
2018-08-31T12:27:22.050Z,75.70
2018-08-31T12:29:58.724Z,77.90
2018-08-31T12:32:31.096Z,78.60
2018-08-31T12:35:03.500Z,79.40
2018-08-31T12:37:42.390Z,80.20
2018-08-31T12:40:13.435Z,80.60
2018-08-31T12:42:45.391Z,77.50
2018-08-31T12:45:22.710Z,77.30
2018-08-31T12:47:59.126Z,78.30
2018-08-31T12:50:33.284Z,78.50
2018-08-31T12:53:07.287Z,79.90
2018-08-31T12:55:41.777Z,79.00
2018-08-31T12:58:14.238Z,78.80
2018-08-31T13:00:47.765Z,78.50
2018-08-31T13:03:19.562Z,78.40
2018-08-31T13:05:51.095Z,79.00
2018-08-31T13:08:26.031Z,78.20
2018-08-31T13:10:57.392Z,77.70
2018-08-31T13:13:26.772Z,76.90
2018-08-31T13:15:57.616Z,75.50
2018-08-31T13:18:28.916Z,78.10
2018-08-31T13:20:59.814Z,77.00
2018-08-31T13:23:30.384Z,76.90
2018-08-31T13:26:00.296Z,75.20
2018-08-31T13:28:31.235Z,76.30
2018-08-31T13:31:06.774Z,76.20
2018-08-31T13:33:38.708Z,75.00
2018-08-31T13:36:13.893Z,74.80
2018-08-31T13:38:58.178Z,77.40
2018-08-31T15:23:01.861Z,79.10
2018-08-31T15:25:32.513Z,88.40
2018-08-31T15:28:01.570Z,88.40
2018-08-31T15:30:32.479Z,87.20
2018-08-31T15:33:03.067Z,84.90
2018-08-31T15:35:32.613Z,86.40
2018-08-31T15:38:01.946Z,86.00
2018-08-31T15:46:19.147Z,82.90
2018-08-31T15:48:48.686Z,83.40
2018-08-31T15:51:17.603Z,84.90
2018-08-31T15:53:56.644Z,85.70
2018-08-31T15:56:29.576Z,85.40
2018-08-31T15:58:58.710Z,88.40
2018-08-31T16:01:28.766Z,88.50
2018-08-31T16:03:57.804Z,86.50
2018-08-31T16:06:29.338Z,85.50
2018-08-31T16:09:00.945Z,86.60
2018-08-31T16:11:30.610Z,86.10
2018-08-31T16:14:00.057Z,85.10
2018-08-31T16:16:30.184Z,84.10
2018-08-31T16:19:00.423Z,84.10
2018-08-31T16:21:31.134Z,82.90
2018-08-31T16:24:02.653Z,80.80
2018-08-31T16:26:31.935Z,81.10
2018-08-31T16:29:01.954Z,83.30
2018-08-31T16:31:30.986Z,83.00
2018-08-31T16:34:01.279Z,83.30
2018-08-31T16:36:30.941Z,84.50
2018-08-31T16:39:00.588Z,84.20
2018-08-31T20:27:09.760Z,81.80
2018-08-31T20:30:10.871Z,99.10
2018-08-31T20:32:51.886Z,99.80
2018-08-31T20:35:26.490Z,99.90
2018-08-31T20:37:55.530Z,99.90
2018-08-31T20:40:24.360Z,99.80
2018-08-31T20:42:53.367Z,99.50
2018-08-31T20:45:22.434Z,99.90
2018-08-31T20:47:51.320Z,99.90
2018-08-31T20:50:20.867Z,99.90
2018-08-31T20:52:52.176Z,99.90
2018-08-31T20:55:21.828Z,99.90
2018-08-31T20:57:50.917Z,99.90
2018-08-31T21:00:20.213Z,99.90
2018-08-31T21:02:49.820Z,99.90
2018-08-31T21:05:18.890Z,99.90
2018-08-31T21:07:48.427Z,99.90
2018-08-31T21:10:17.875Z,99.90
2018-08-31T21:12:47.148Z,99.90
2018-08-31T21:15:16.552Z,99.90
2018-08-31T21:17:45.858Z,99.90
2018-08-31T21:20:16.568Z,99.10
2018-08-31T21:22:46.273Z,99.20
2018-08-31T21:25:15.905Z,99.00
2018-08-31T21:27:44.693Z,99.50
2018-08-31T21:30:14.914Z,98.60
2018-08-31T21:32:43.960Z,99.30
2018-08-31T21:35:13.361Z,98.20
2018-08-31T21:37:43.614Z,98.30
2018-08-31T21:40:13.167Z,96.60
2018-08-31T21:42:42.095Z,97.70
2018-08-31T21:45:10.725Z,98.40
2018-08-31T21:47:40.645Z,98.60
2018-08-31T21:50:09.673Z,98.40
2018-08-31T21:52:38.848Z,97.30
2018-08-31T21:55:08.104Z,98.00
2018-08-31T21:57:37.108Z,98.20
2018-08-31T22:00:09.573Z,98.40
2018-08-31T22:02:38.674Z,98.20
2018-08-31T22:05:07.820Z,98.50
2018-08-31T22:07:36.678Z,98.00
2018-08-31T22:10:05.568Z,98.40
2018-08-31T22:12:34.458Z,97.80
2018-08-31T22:15:04.538Z,98.50
2018-08-31T22:17:33.806Z,98.90
2018-08-31T22:20:02.665Z,98.90
2018-08-31T22:22:34.229Z,98.50
2018-08-31T22:25:05.500Z,98.00
2018-08-31T22:27:35.441Z,97.20
2018-08-31T22:30:04.592Z,97.90
2018-08-31T22:32:34.324Z,98.00
2018-08-31T22:35:04.513Z,96.60
2018-08-31T22:37:33.739Z,98.00
2018-08-31T22:40:02.858Z,98.00
2018-08-31T22:42:33.032Z,98.10
2018-08-31T22:45:02.513Z,98.50
2018-08-31T22:47:31.731Z,98.00
2018-08-31T22:50:00.811Z,98.60
2018-08-31T22:52:29.550Z,98.60
2018-08-31T22:54:59.484Z,97.80
2018-08-31T22:57:29.124Z,97.70
2018-08-31T22:59:57.841Z,98.00
2018-08-31T23:02:28.146Z,98.20
2018-08-31T23:04:57.320Z,98.10
2018-08-31T23:07:33.654Z,97.60
2018-08-31T23:10:02.777Z,97.70
2018-08-31T23:12:31.773Z,97.90
2018-08-31T23:15:00.771Z,98.70
2018-08-31T23:17:30.333Z,98.00
2018-08-31T23:20:00.440Z,98.40
2018-08-31T23:22:30.552Z,97.40
2018-08-31T23:25:01.049Z,97.20
2018-08-31T23:27:30.711Z,96.60
2018-08-31T23:29:59.588Z,97.80
2018-08-31T23:32:29.185Z,99.00
2018-08-31T23:35:02.337Z,97.90
2018-08-31T23:37:31.653Z,97.40
2018-08-31T23:40:00.826Z,98.30
2018-08-31T23:42:32.753Z,98.30
2018-08-31T23:45:02.552Z,98.30
2018-08-31T23:47:31.704Z,98.40
2018-08-31T23:50:01.638Z,98.30
2018-08-31T23:52:30.992Z,98.00
2018-08-31T23:55:00.326Z,97.70
2018-08-31T23:57:29.832Z,97.80
2018-08-31T23:59:59.271Z,97.30
